Time;durP1;ratioP1;P1;durP2;ratioP2;P2;SDS_P1;SDS_P2;PMS_P1;PMS_P2;Temp;Humidity;BMP_temperature;BMP_pressure;BME280_temperature;BME280_humidity;BME280_pressure;Samples;Min_cycle;Max_cycle;Signal;HPM_P1;HPM_P2
2021/11/01 00:01:50;;;;;;;6.43;5.87;;;13.70;99.90;;;;;;5054764;28;20214;-90
2021/11/01 00:04:16;;;;;;;6.03;5.53;;;13.70;99.90;;;;;;5079182;28;20580;-90
2021/11/01 00:06:46;;;;;;;5.17;4.77;;;13.70;99.90;;;;;;5088658;28;20696;-91
2021/11/01 00:09:16;;;;;;;5.40;4.90;;;13.80;99.90;;;;;;5047139;28;20189;-90
2021/11/01 00:12:03;;;;;;;5.10;4.60;;;13.90;99.90;;;;;;5060227;28;20252;-90
2021/11/01 00:17:26;;;;;;;4.93;4.50;;;13.90;99.90;;;;;;5064953;28;20209;-91
2021/11/01 00:20:25;;;;;;;6.03;5.27;;;13.80;99.90;;;;;;5076988;28;20190;-91
2021/11/01 00:23:01;;;;;;;7.37;4.77;;;13.70;99.90;;;;;;5046257;28;20778;-91
2021/11/01 00:25:51;;;;;;;5.43;4.87;;;13.70;99.90;;;;;;5056413;28;20262;-90
2021/11/01 00:28:48;;;;;;;;;;;;;;;;;;;;;
2021/11/01 00:31:22;;;;;;;5.90;4.13;;;13.80;99.90;;;;;;5048593;28;20257;-92
2021/11/01 00:37:43;;;;;;;3.60;2.70;;;13.60;99.90;;;;;;4977797;28;20374;-92
2021/11/01 00:41:00;;;;;;;3.30;2.30;;;13.40;99.90;;;;;;4979668;28;20763;-90
2021/11/01 00:43:50;;;;;;;3.37;2.17;;;13.30;99.90;;;;;;5021633;28;20318;-92
2021/11/01 00:47:29;;;;;;;3.30;2.30;;;13.40;99.90;;;;;;5036973;28;20227;-92
2021/11/01 00:56:40;;;;;;;3.27;1.60;;;13.00;99.90;;;;;;4999686;22;20271;-92
2021/11/01 00:59:06;;;;;;;3.40;1.67;;;13.00;99.90;;;;;;5098724;28;20217;-92
2021/11/01 01:01:33;;;;;;;3.57;1.77;;;12.90;99.90;;;;;;5079217;28;20220;-92
2021/11/01 01:04:00;;;;;;;3.37;1.80;;;12.90;99.90;;;;;;5079532;28;20219;-92
2021/11/01 01:06:26;;;;;;;3.47;1.90;;;12.70;99.90;;;;;;5045639;28;20290;-92
2021/11/01 01:08:53;;;;;;;1.57;1.37;;;12.70;99.90;;;;;;5089628;28;20209;-92
2021/11/01 01:11:19;;;;;;;4.87;1.73;;;12.60;99.90;;;;;;5091218;28;20687;-92
2021/11/01 01:13:45;;;;;;;5.33;1.60;;;12.50;99.90;;;;;;5049379;28;20186;-91
2021/11/01 01:16:21;;;;;;;4.57;1.80;;;12.40;99.90;;;;;;5065022;28;20206;-92
2021/11/01 01:18:49;;;;;;;5.10;2.10;;;12.50;99.90;;;;;;5079993;28;20244;-93
2021/11/01 01:24:01;;;;;;;2.80;2.03;;;12.40;99.90;;;;;;5084726;28;20213;-91
2021/11/01 01:26:27;;;;;;;3.70;2.17;;;12.50;99.90;;;;;;5059645;28;20205;-92
2021/11/01 01:28:53;;;;;;;3.47;1.87;;;12.40;99.90;;;;;;5054745;28;20221;-92
2021/11/01 01:31:18;;;;;;;5.13;2.07;;;12.40;99.90;;;;;;5063520;28;20198;-92
2021/11/01 01:33:44;;;;;;;4.70;1.90;;;12.40;99.90;;;;;;5056300;28;20247;-92
2021/11/01 01:36:11;;;;;;;3.97;2.10;;;12.30;99.90;;;;;;5056301;28;20186;-92
2021/11/01 01:38:37;;;;;;;4.10;1.97;;;12.30;99.90;;;;;;5055088;28;20221;-92
2021/11/01 01:41:18;;;;;;;5.23;1.73;;;12.20;99.90;;;;;;5067689;28;20190;-91
2021/11/01 01:43:46;;;;;;;6.03;1.80;;;12.00;99.90;;;;;;5046045;28;20305;-91
2021/11/01 01:46:12;;;;;;;4.37;1.93;;;11.90;99.90;;;;;;5082994;28;20196;-91
2021/11/01 01:48:38;;;;;;;8.13;2.33;;;11.80;99.90;;;;;;5079479;28;20210;-91
2021/11/01 01:51:05;;;;;;;6.40;2.30;;;11.90;99.90;;;;;;5058741;28;20196;-91
2021/11/01 01:53:32;;;;;;;6.13;2.20;;;11.80;99.90;;;;;;5054903;28;20228;-92
2021/11/01 01:55:58;;;;;;;1.83;1.60;;;11.70;99.90;;;;;;5052764;28;20220;-92
2021/11/01 01:58:33;;;;;;;4.53;1.80;;;11.70;99.90;;;;;;5046629;28;20228;-92
2021/11/01 02:03:28;;;;;;;5.80;2.30;;;11.50;99.90;;;;;;5050553;28;20310;-92
2021/11/01 02:06:13;;;;;;;5.13;1.70;;;11.50;99.90;;;;;;5060894;28;20207;-92
2021/11/01 02:09:09;;;;;;;4.90;1.80;;;11.40;99.90;;;;;;5055482;28;20738;-92
2021/11/01 02:11:49;;;;;;;4.43;1.70;;;11.40;99.90;;;;;;5045497;28;20193;-91
2021/11/01 02:14:20;;;;;;;3.33;1.67;;;11.30;99.90;;;;;;5069119;28;20255;-92
2021/11/01 02:16:49;;;;;;;3.17;1.70;;;11.30;99.90;;;;;;5062923;28;20185;-92
2021/11/01 02:19:17;;;;;;;5.40;2.00;;;11.30;99.90;;;;;;5058157;28;20266;-91
2021/11/01 02:21:46;;;;;;;5.13;2.07;;;11.20;99.90;;;;;;5063723;28;20200;-92
2021/11/01 02:24:20;;;;;;;5.53;2.20;;;11.20;99.90;;;;;;5092529;28;20207;-92
2021/11/01 02:26:48;;;;;;;5.70;1.80;;;11.20;99.90;;;;;;5057071;28;20185;-92
2021/11/01 02:29:15;;;;;;;5.17;2.13;;;11.10;99.90;;;;;;5043559;28;20220;-94
2021/11/01 02:31:41;;;;;;;4.93;1.80;;;11.10;99.90;;;;;;5052603;28;20211;-93
2021/11/01 02:34:07;;;;;;;4.03;2.07;;;11.10;99.90;;;;;;5070281;28;20287;-94
2021/11/01 02:36:33;;;;;;;8.63;2.17;;;11.10;99.90;;;;;;5060485;28;20184;-95
2021/11/01 02:39:00;;;;;;;3.83;2.20;;;11.10;99.90;;;;;;5049757;28;20218;-95
2021/11/01 02:41:33;;;;;;;9.20;2.27;;;11.10;99.90;;;;;;5061635;28;20246;-94
2021/11/01 02:44:07;;;;;;;4.37;1.90;;;11.10;99.90;;;;;;5062832;28;20222;-95
2021/11/01 02:46:32;;;;;;;6.50;1.83;;;11.10;99.90;;;;;;5046687;28;20214;-95
2021/11/01 02:48:59;;;;;;;4.63;2.30;;;11.10;99.90;;;;;;5063571;28;20208;-95
2021/11/01 02:51:27;;;;;;;6.17;2.37;;;11.10;99.90;;;;;;5060970;28;20177;-94
2021/11/01 02:53:54;;;;;;;4.33;2.00;;;11.00;99.90;;;;;;5045559;28;20188;-95
2021/11/01 02:56:21;;;;;;;2.47;1.80;;;10.90;99.90;;;;;;5063015;28;20267;-94
2021/11/01 02:58:48;;;;;;;6.93;2.00;;;11.00;99.90;;;;;;5052661;28;20252;-94
2021/11/01 03:01:16;;;;;;;4.93;1.90;;;10.90;99.90;;;;;;5060787;28;20562;-94
2021/11/01 03:03:43;;;;;;;2.90;1.87;;;10.90;99.90;;;;;;5027112;28;20291;-94
2021/11/01 03:13:01;;;;;;;5.43;2.10;;;10.90;99.90;;;;;;5017699;28;20200;-93
2021/11/01 03:15:28;;;;;;;4.77;2.13;;;10.90;99.90;;;;;;4993662;28;20224;-93
2021/11/01 03:17:59;;;;;;;7.47;2.10;;;10.90;99.90;;;;;;5036436;28;20643;-94
2021/11/01 03:20:32;;;;;;;4.90;2.10;;;10.90;99.90;;;;;;5058763;28;20175;-94
2021/11/01 03:23:06;;;;;;;3.73;2.00;;;10.90;99.90;;;;;;5043578;28;20199;-94
2021/11/01 03:25:42;;;;;;;4.53;1.90;;;10.80;99.90;;;;;;5060799;28;20164;-93
2021/11/01 03:28:10;;;;;;;2.03;1.63;;;10.90;99.90;;;;;;5046774;28;20649;-93
2021/11/01 03:30:38;;;;;;;2.63;1.63;;;10.90;99.90;;;;;;5065652;28;20180;-94
2021/11/01 03:33:05;;;;;;;4.97;1.83;;;10.90;99.90;;;;;;5066235;28;20192;-94
2021/11/01 03:35:33;;;;;;;3.70;2.23;;;11.00;99.90;;;;;;5046758;28;20645;-93
2021/11/01 03:38:01;;;;;;;4.53;1.87;;;10.90;99.90;;;;;;5039437;28;20277;-93
2021/11/01 03:40:30;;;;;;;3.63;1.70;;;10.90;99.90;;;;;;5040698;28;20211;-92
2021/11/01 03:42:57;;;;;;;3.30;2.17;;;10.90;99.90;;;;;;5068238;28;20816;-94
2021/11/01 03:45:25;;;;;;;5.50;2.00;;;10.80;99.90;;;;;;5061637;28;20187;-94
2021/11/01 03:48:01;;;;;;;6.50;2.23;;;10.80;99.90;;;;;;5069979;28;20224;-93
2021/11/01 03:51:47;;;;;;;3.10;1.70;;;10.80;99.90;;;;;;5056397;28;20198;-94
2021/11/01 03:56:58;;;;;;;4.10;1.73;;;10.70;99.90;;;;;;5036277;28;20203;-93
2021/11/01 03:59:25;;;;;;;5.40;1.90;;;10.70;99.90;;;;;;5066262;28;20207;-93
2021/11/01 04:01:51;;;;;;;4.57;1.90;;;10.80;99.90;;;;;;5055226;28;20191;-93
2021/11/01 04:04:17;;;;;;;4.87;1.80;;;10.70;99.90;;;;;;5055480;28;20678;-93
2021/11/01 04:06:43;;;;;;;3.10;1.90;;;10.70;99.90;;;;;;5054772;28;20184;-93
2021/11/01 04:09:11;;;;;;;3.50;1.67;;;10.70;99.90;;;;;;5071293;28;20734;-93
2021/11/01 04:11:38;;;;;;;3.53;2.27;;;10.70;99.90;;;;;;5046622;28;20184;-93
2021/11/01 04:14:10;;;;;;;5.27;1.90;;;10.70;99.90;;;;;;5060853;28;20199;-92
2021/11/01 04:16:39;;;;;;;5.80;1.80;;;10.80;99.90;;;;;;5026514;28;20207;-93
2021/11/01 04:21:39;;;;;;;5.47;1.60;;;10.80;99.90;;;;;;5043936;28;20711;-93
2021/11/01 04:24:05;;;;;;;3.13;1.80;;;10.80;99.90;;;;;;5031081;28;20307;-93
2021/11/01 04:26:31;;;;;;;3.33;1.90;;;10.70;99.90;;;;;;5059854;28;20206;-92
2021/11/01 04:28:58;;;;;;;4.33;1.70;;;10.70;99.90;;;;;;5072520;28;20665;-93
2021/11/01 04:31:33;;;;;;;6.50;2.00;;;10.70;99.90;;;;;;5031470;28;20196;-93
2021/11/01 04:34:03;;;;;;;4.17;1.93;;;10.70;99.90;;;;;;5028709;28;20208;-93
2021/11/01 04:36:29;;;;;;;2.03;1.50;;;10.80;99.90;;;;;;5064207;28;20547;-93
2021/11/01 04:39:10;;;;;;;6.67;2.17;;;10.80;99.90;;;;;;5039313;28;20254;-93
2021/11/01 04:42:02;;;;;;;3.33;1.80;;;10.80;99.90;;;;;;5070506;28;20184;-93
2021/11/01 04:44:58;;;;;;;5.03;1.90;;;10.90;99.90;;;;;;5061949;28;20224;-93
2021/11/01 04:55:36;;;;;;;6.13;2.33;;;10.70;99.90;;;;;;4965011;28;20218;-93
2021/11/01 04:58:03;;;;;;;3.83;1.73;;;10.70;99.90;;;;;;5026914;28;20231;-93
2021/11/01 05:00:28;;;;;;;4.07;2.00;;;10.70;99.90;;;;;;5075818;28;20638;-92
2021/11/01 05:05:46;;;;;;;2.80;1.70;;;10.70;99.90;;;;;;5035969;28;20196;-93
2021/11/01 05:08:13;;;;;;;6.10;2.23;;;10.80;99.90;;;;;;5029115;28;20216;-92
2021/11/01 05:10:45;;;;;;;4.97;1.80;;;10.80;99.90;;;;;;5027130;28;20566;-93
2021/11/01 05:13:24;;;;;;;7.03;1.80;;;10.80;99.90;;;;;;5049646;28;20196;-93
2021/11/01 05:18:33;;;;;;;4.63;1.73;;;10.80;99.90;;;;;;5104763;28;20230;-92
2021/11/01 05:21:18;;;;;;;3.13;1.70;;;10.80;99.90;;;;;;5042153;28;20230;-93
2021/11/01 05:23:59;;;;;;;7.47;2.30;;;10.70;99.90;;;;;;5042026;28;20726;-93
2021/11/01 05:29:14;;;;;;;3.60;1.70;;;10.80;99.90;;;;;;5026236;28;20230;-93
2021/11/01 05:31:47;;;;;;;2.67;1.60;;;10.80;99.90;;;;;;5043885;28;20234;-92
2021/11/01 05:34:17;;;;;;;4.50;1.90;;;10.80;99.90;;;;;;5071935;28;20282;-93
2021/11/01 05:36:43;;;;;;;3.17;1.60;;;10.90;99.90;;;;;;5039270;28;20189;-93
2021/11/01 05:39:09;;;;;;;4.03;2.00;;;10.90;99.90;;;;;;5057066;28;20731;-93
2021/11/01 05:41:35;;;;;;;2.77;1.80;;;10.90;99.90;;;;;;5043413;28;20196;-93
2021/11/01 05:44:02;;;;;;;2.87;1.50;;;10.80;99.90;;;;;;5054947;28;20207;-93
2021/11/01 05:46:36;;;;;;;2.67;1.90;;;10.80;99.90;;;;;;5040697;28;20211;-93
2021/11/01 05:49:04;;;;;;;3.73;1.63;;;10.90;99.90;;;;;;5042897;28;20260;-93
2021/11/01 05:51:31;;;;;;;1.37;1.27;;;10.80;99.90;;;;;;5055577;28;20295;-93
2021/11/01 05:53:59;;;;;;;3.07;1.77;;;10.80;99.90;;;;;;5073203;28;20569;-93
2021/11/01 05:56:42;;;;;;;3.40;1.90;;;10.70;99.90;;;;;;5046468;28;20202;-93
2021/11/01 06:15:16;;;;;;;3.43;1.73;;;10.80;99.90;;;;;;5043176;28;20225;-93
2021/11/01 06:17:42;;;;;;;1.60;1.40;;;10.80;99.90;;;;;;5042741;28;20423;-93
2021/11/01 06:20:10;;;;;;;4.47;1.67;;;10.80;99.90;;;;;;5048803;28;20180;-93
2021/11/01 06:22:35;;;;;;;2.80;1.67;;;10.80;99.90;;;;;;5061111;28;20191;-93
2021/11/01 06:25:06;;;;;;;4.30;1.50;;;10.70;99.90;;;;;;5061836;28;20192;-94
2021/11/01 06:27:32;;;;;;;2.87;1.57;;;10.70;99.90;;;;;;5067457;28;20232;-93
2021/11/01 06:32:46;;;;;;;2.33;1.50;;;10.70;99.90;;;;;;5078001;28;20211;-93
2021/11/01 06:43:29;;;;;;;1.53;1.40;;;10.70;99.60;;;;;;5082855;28;20704;-93
2021/11/01 06:56:47;;;;;;;3.67;1.60;;;10.70;99.50;;;;;;5068528;28;20226;-93
2021/11/01 07:14:08;;;;;;;1.67;1.40;;;10.70;99.60;;;;;;5081097;28;20637;-93
2021/11/01 07:15:52;;;;;;;3.43;1.67;;;10.70;98.80;;;;;;5084282;28;20284;-93
2021/11/01 07:18:43;;;;;;;2.47;1.40;;;10.80;96.80;;;;;;5038633;28;20212;-92
2021/11/01 07:21:34;;;;;;;2.30;1.43;;;10.70;97.70;;;;;;5057966;28;20200;-93
2021/11/01 07:24:16;;;;;;;2.20;1.40;;;10.60;97.80;;;;;;5049386;28;20204;-93
2021/11/01 08:27:18;;;;;;;3.47;1.60;;;10.80;94.10;;;;;;5040383;28;20208;-94
2021/11/01 08:40:27;;;;;;;2.80;1.43;;;10.90;93.60;;;;;;5065292;28;20195;-94
2021/11/01 08:43:08;;;;;;;4.17;1.60;;;10.80;94.00;;;;;;5056780;28;20302;-94
2021/11/01 08:45:59;;;;;;;1.47;1.37;;;10.80;94.40;;;;;;5059317;28;20187;-95
2021/11/01 08:48:32;;;;;;;2.90;1.70;;;10.70;93.60;;;;;;5080270;28;20211;-94
2021/11/01 09:04:40;;;;;;;2.07;1.53;;;10.80;95.40;;;;;;5067277;28;20204;-94
2021/11/01 09:21:30;;;;;;;1.90;1.70;;;11.20;93.10;;;;;;5059269;28;20316;-95
2021/11/01 09:26:08;;;;;;;2.70;1.73;;;11.20;93.00;;;;;;5064973;28;20181;-95
2021/11/01 09:28:37;;;;;;;1.57;1.47;;;11.20;93.20;;;;;;5066741;28;20204;-95
2021/11/01 09:36:45;;;;;;;1.60;1.50;;;11.30;92.60;;;;;;5071806;28;20204;-93
2021/11/01 09:39:42;;;;;;;1.77;1.67;;;11.30;92.40;;;;;;5054409;28;20213;-95
2021/11/01 09:42:08;;;;;;;3.13;1.73;;;11.30;93.40;;;;;;5060861;28;20195;-96
2021/11/01 09:44:35;;;;;;;1.83;1.60;;;11.50;91.10;;;;;;5093756;28;20222;-94
2021/11/01 09:47:02;;;;;;;3.27;1.40;;;11.50;92.60;;;;;;5074294;28;20175;-95
2021/11/01 09:49:28;;;;;;;2.53;1.47;;;11.50;90.50;;;;;;5052546;28;20217;-96
2021/11/01 09:51:58;;;;;;;1.60;1.50;;;11.50;91.10;;;;;;5066956;28;20173;-95
2021/11/01 09:54:27;;;;;;;1.67;1.53;;;11.50;89.70;;;;;;5033607;28;20221;-95
2021/11/01 09:57:04;;;;;;;2.23;1.57;;;11.50;90.90;;;;;;5069523;28;20206;-96
2021/11/01 09:59:41;;;;;;;3.43;1.57;;;11.50;90.40;;;;;;5088438;28;20227;-96
2021/11/01 10:02:10;;;;;;;2.27;1.63;;;11.40;90.50;;;;;;5070121;28;20260;-95
2021/11/01 10:04:38;;;;;;;3.43;1.60;;;11.50;90.90;;;;;;5068650;28;20219;-95
2021/11/01 10:07:53;;;;;;;2.00;1.67;;;11.40;90.60;;;;;;5070815;28;20176;-95
2021/11/01 10:10:11;;;;;;;2.13;1.70;;;11.50;89.80;;;;;;5078334;28;20189;-95
2021/11/01 10:12:40;;;;;;;2.13;1.40;;;11.60;89.70;;;;;;5068771;28;20195;-96
2021/11/01 10:18:04;;;;;;;1.93;1.57;;;11.50;89.40;;;;;;5076985;28;20210;-95
2021/11/01 10:20:39;;;;;;;1.80;1.60;;;11.60;90.20;;;;;;5073620;28;20171;-96
2021/11/01 10:23:28;;;;;;;1.70;1.40;;;11.70;89.50;;;;;;5072572;28;20206;-94
2021/11/01 10:26:11;;;;;;;2.30;1.60;;;11.80;89.00;;;;;;5073238;28;20263;-94
2021/11/01 10:28:37;;;;;;;2.67;1.47;;;11.90;88.60;;;;;;5055298;28;20199;-96
2021/11/01 10:31:11;;;;;;;2.20;1.50;;;11.70;90.00;;;;;;5090157;28;20178;-96
2021/11/01 10:33:45;;;;;;;1.57;1.33;;;11.70;89.90;;;;;;5056033;28;20207;-95
2021/11/01 10:36:29;;;;;;;2.83;1.40;;;11.70;90.40;;;;;;5074533;28;20239;-96
2021/11/01 10:38:58;;;;;;;1.97;1.60;;;11.80;89.60;;;;;;5059347;28;20262;-95
2021/11/01 10:43:59;;;;;;;1.93;1.70;;;11.90;90.60;;;;;;5089770;28;20212;-95
2021/11/01 11:28:37;;;;;;;2.87;1.63;;;12.50;87.00;;;;;;5049837;28;20192;-88
2021/11/01 11:31:25;;;;;;;2.63;2.07;;;12.70;85.80;;;;;;5046200;28;20194;-90
2021/11/01 11:48:18;;;;;;;2.57;1.60;;;12.90;84.00;;;;;;5050868;28;20262;-89
2021/11/01 11:50:40;;;;;;;2.20;1.53;;;12.90;83.50;;;;;;5053220;28;20200;-88
2021/11/01 11:53:13;;;;;;;1.47;1.37;;;12.90;84.60;;;;;;5052118;28;20297;-89
2021/11/01 11:55:45;;;;;;;3.17;1.63;;;13.00;82.20;;;;;;5039402;28;20215;-89
2021/11/01 11:58:15;;;;;;;1.60;1.50;;;13.10;82.40;;;;;;5053335;28;20192;-87
2021/11/01 12:00:44;;;;;;;1.67;1.57;;;13.10;81.00;;;;;;5042477;28;20337;-87
2021/11/01 12:03:31;;;;;;;1.30;1.30;;;13.20;81.80;;;;;;5054820;28;20206;-87
2021/11/01 12:06:29;;;;;;;1.40;1.30;;;13.30;81.70;;;;;;5127644;23;20293;-87
2021/11/01 12:09:19;;;;;;;1.63;1.53;;;13.10;80.50;;;;;;5014919;28;20218;-87
2021/11/01 12:12:39;;;;;;;2.13;1.47;;;13.10;79.50;;;;;;5050192;28;20203;-88
2021/11/01 12:18:42;;;;;;;2.67;1.50;;;13.30;78.70;;;;;;5010772;28;20255;-88
2021/11/01 12:22:02;;;;;;;2.23;1.40;;;13.60;77.40;;;;;;5019778;28;20217;-87
2021/11/01 12:28:12;;;;;;;1.50;1.40;;;13.50;78.40;;;;;;5129346;22;20273;-86
2021/11/01 12:30:27;;;;;;;2.70;1.80;;;13.50;75.40;;;;;;5047083;28;20195;-90
2021/11/01 12:33:40;;;;;;;;;;;;;;;;;;;;;
2021/11/01 12:39:28;;;;;;;3.40;1.50;;;13.70;75.80;;;;;;5062192;28;20199;-88
2021/11/01 12:59:46;;;;;;;2.67;1.73;;;14.10;72.90;;;;;;4973049;28;20724;-88
2021/11/01 13:03:11;;;;;;;4.17;1.90;;;14.40;72.60;;;;;;4972919;28;20277;-89
2021/11/01 13:05:51;;;;;;;2.17;1.63;;;14.40;70.30;;;;;;4958774;28;20233;-89
2021/11/01 13:08:36;;;;;;;4.73;1.97;;;14.30;73.10;;;;;;5057849;28;20247;-89
2021/11/01 13:19:22;;;;;;;2.63;1.67;;;14.40;72.90;;;;;;5056773;28;20245;-89
2021/11/01 13:22:01;;;;;;;3.23;1.77;;;14.50;72.50;;;;;;5057285;28;20212;-89
2021/11/01 13:25:04;;;;;;;2.37;1.70;;;14.50;71.70;;;;;;5042193;28;20283;-89
2021/11/01 13:34:46;;;;;;;2.50;1.87;;;14.30;73.10;;;;;;5056088;28;20655;-89
2021/11/01 13:36:18;;;;;;;4.77;1.77;;;13.90;70.90;;;;;;5050975;28;20276;-90
2021/11/01 13:38:45;;;;;;;2.10;1.50;;;14.00;72.50;;;;;;5057351;28;20187;-89
2021/11/01 13:41:16;;;;;;;2.70;1.97;;;13.80;73.20;;;;;;5058928;28;20208;-89
2021/11/01 13:43:44;;;;;;;4.37;1.63;;;13.80;74.10;;;;;;5067297;28;20197;-88
2021/11/01 13:46:14;;;;;;;2.57;1.60;;;13.90;70.50;;;;;;5056875;28;20255;-90
2021/11/01 13:48:41;;;;;;;4.23;1.60;;;14.10;71.30;;;;;;5056620;28;20227;-88
2021/11/01 13:51:10;;;;;;;3.83;1.73;;;14.10;72.90;;;;;;5035639;28;20197;-89
2021/11/01 13:53:52;;;;;;;5.57;2.10;;;14.00;72.80;;;;;;5046639;28;20182;-89
2021/11/01 13:56:33;;;;;;;4.60;1.80;;;14.00;70.00;;;;;;5045728;28;20287;-89
2021/11/01 13:59:07;;;;;;;3.70;2.00;;;14.00;71.20;;;;;;5070408;28;20204;-88
2021/11/01 14:02:07;;;;;;;1.63;1.53;;;14.00;71.50;;;;;;5047958;28;20207;-88
2021/11/01 14:12:59;;;;;;;3.10;1.80;;;13.90;73.40;;;;;;5059769;28;20219;-88
2021/11/01 15:02:13;;;;;;;6.40;2.43;;;13.90;74.60;;;;;;5058131;28;20432;-87
2021/11/01 15:20:27;;;;;;;7.13;2.30;;;13.10;81.80;;;;;;5050815;28;20196;-89
2021/11/01 15:23:32;;;;;;;5.43;2.20;;;12.80;84.00;;;;;;5031260;28;20231;-90
2021/11/01 16:18:01;;;;;;;5.83;2.73;;;12.40;92.20;;;;;;5034253;28;20226;-90
2021/11/01 16:20:27;;;;;;;5.50;3.50;;;12.50;92.10;;;;;;5032682;28;20205;-91
2021/11/01 16:23:09;;;;;;;4.73;2.97;;;12.50;90.70;;;;;;5033518;28;20224;-91
2021/11/01 16:25:35;;;;;;;7.53;3.67;;;12.40;91.00;;;;;;5032627;28;20204;-92
2021/11/01 16:28:01;;;;;;;5.37;3.50;;;12.20;91.40;;;;;;5028926;28;20203;-91
2021/11/01 16:30:30;;;;;;;6.43;3.80;;;11.90;93.20;;;;;;5020008;28;20186;-90
2021/11/01 16:33:03;;;;;;;6.37;4.30;;;11.80;93.40;;;;;;5027333;28;20197;-90
2021/11/01 16:35:36;;;;;;;4.77;4.27;;;11.90;92.20;;;;;;5031136;28;20203;-90
2021/11/01 16:40:28;;;;;;;10.20;5.63;;;11.80;92.10;;;;;;5026128;28;20202;-91
2021/11/01 16:42:54;;;;;;;6.10;5.43;;;11.60;93.00;;;;;;5036948;28;20200;-91
2021/11/01 16:47:58;;;;;;;6.60;5.83;;;11.30;94.00;;;;;;5028209;28;20207;-92
2021/11/01 16:50:24;;;;;;;6.90;5.70;;;11.30;94.00;;;;;;5032104;28;20199;-89
2021/11/01 16:52:50;;;;;;;7.33;5.20;;;11.30;94.70;;;;;;5033066;28;20214;-89
2021/11/01 16:55:19;;;;;;;7.07;5.47;;;11.20;94.60;;;;;;5031816;28;20654;-89
2021/11/01 16:57:50;;;;;;;4.47;4.07;;;11.20;94.10;;;;;;5032101;28;20206;-87
2021/11/01 17:08:44;;;;;;;5.90;4.60;;;11.00;93.90;;;;;;5030122;28;20633;-87
2021/11/01 17:21:55;;;;;;;4.80;3.17;;;11.10;91.20;;;;;;5029191;28;20368;-89
2021/11/01 17:24:30;;;;;;;3.17;2.70;;;11.00;91.40;;;;;;5029886;28;20223;-90
2021/11/01 17:36:03;;;;;;;2.93;2.70;;;10.70;91.00;;;;;;5017802;28;20204;-90
2021/11/01 18:43:46;;;;;;;6.40;5.80;;;10.80;90.40;;;;;;5028416;28;20316;-89
2021/11/01 18:51:30;;;;;;;5.00;4.50;;;10.80;90.40;;;;;;5035529;28;20333;-89
2021/11/01 18:54:17;;;;;;;6.63;6.03;;;10.70;89.90;;;;;;5027482;28;20223;-88
2021/11/01 18:56:45;;;;;;;5.40;4.90;;;10.70;89.70;;;;;;5032961;28;20224;-90
2021/11/01 18:59:12;;;;;;;6.10;5.10;;;10.70;89.70;;;;;;5034641;28;20585;-89
2021/11/01 19:01:47;;;;;;;4.60;3.53;;;10.70;88.90;;;;;;5030867;28;20243;-89
2021/11/01 19:04:19;;;;;;;3.80;3.50;;;10.60;88.90;;;;;;5031738;28;20204;-89
2021/11/01 19:06:51;;;;;;;4.23;3.83;;;10.60;89.10;;;;;;5031357;28;20196;-89
2021/11/01 20:04:22;;;;;;;6.43;5.83;;;9.90;90.90;;;;;;5035988;28;20267;-89
2021/11/01 20:15:30;;;;;;;6.23;5.40;;;9.80;92.30;;;;;;5032985;28;20215;-91
2021/11/01 21:24:54;;;;;;;8.50;7.60;;;9.40;90.20;;;;;;5027320;28;20217;-89
2021/11/01 21:27:21;;;;;;;16.90;13.03;;;9.40;90.30;;;;;;5018538;28;20201;-89
2021/11/01 21:29:48;;;;;;;7.77;7.00;;;9.30;90.00;;;;;;5026680;28;20259;-91
2021/11/01 21:35:07;;;;;;;22.93;15.07;;;9.30;89.00;;;;;;5035024;28;20232;-89
2021/11/01 21:37:32;;;;;;;8.63;7.50;;;9.30;89.40;;;;;;5002986;28;20210;-90
2021/11/01 21:40:07;;;;;;;9.50;8.10;;;9.30;88.70;;;;;;5035600;28;20201;-92
2021/11/01 21:42:33;;;;;;;9.50;8.50;;;9.30;88.70;;;;;;5042286;28;20219;-91
2021/11/01 21:45:00;;;;;;;12.53;9.60;;;9.30;88.30;;;;;;5036591;28;20276;-91
2021/11/01 21:47:27;;;;;;;10.80;8.70;;;9.30;88.30;;;;;;5035818;28;20190;-89
2021/11/01 21:49:53;;;;;;;5.77;5.27;;;9.20;88.00;;;;;;5037672;28;20186;-91
2021/11/01 21:52:20;;;;;;;8.87;8.07;;;9.10;87.90;;;;;;5037521;28;20260;-91
2021/11/01 21:54:56;;;;;;;7.20;5.90;;;8.90;86.60;;;;;;5036004;28;20195;-90
2021/11/01 21:57:43;;;;;;;7.67;6.87;;;8.80;88.70;;;;;;5034758;28;20680;-89
2021/11/01 22:17:03;;;;;;;8.13;7.33;;;8.90;90.20;;;;;;5031580;28;20235;-91
2021/11/01 22:25:12;;;;;;;7.10;6.50;;;8.90;90.00;;;;;;5034184;28;20205;-90
2021/11/01 22:33:31;;;;;;;8.53;6.77;;;8.90;89.80;;;;;;5032463;28;20247;-91
2021/11/01 22:41:30;;;;;;;7.30;6.70;;;8.80;89.10;;;;;;5036645;28;20194;-91
2021/11/01 22:57:22;;;;;;;6.87;5.93;;;8.80;89.30;;;;;;5037642;28;20284;-91
2021/11/01 22:59:48;;;;;;;5.80;5.30;;;8.80;90.60;;;;;;5039434;28;20253;-91
2021/11/01 23:02:19;;;;;;;7.03;6.43;;;8.80;90.90;;;;;;5034709;28;20237;-92
2021/11/01 23:04:50;;;;;;;6.80;5.70;;;8.80;90.10;;;;;;5053529;28;20185;-92
2021/11/01 23:32:18;;;;;;;6.80;6.17;;;8.60;89.90;;;;;;5038115;28;20255;-89
2021/11/01 23:34:44;;;;;;;7.53;6.73;;;8.50;91.80;;;;;;5052732;28;20657;-90
2021/11/01 23:37:10;;;;;;;7.43;6.73;;;8.50;92.50;;;;;;5035365;28;20208;-90
2021/11/01 23:39:35;;;;;;;6.63;6.03;;;8.50;92.60;;;;;;5036099;28;20534;-90
2021/11/01 23:42:01;;;;;;;6.57;5.97;;;8.50;93.50;;;;;;5033358;28;20221;-91
2021/11/01 23:44:27;;;;;;;6.60;6.00;;;8.50;94.00;;;;;;5034876;28;20247;-90
2021/11/01 23:46:53;;;;;;;5.77;5.17;;;8.60;94.40;;;;;;5035268;28;20211;-90
2021/11/01 23:49:18;;;;;;;6.17;5.47;;;8.70;94.00;;;;;;5035303;28;20202;-90
2021/11/01 23:51:58;;;;;;;7.00;6.30;;;8.90;93.90;;;;;;5034555;28;20203;-91
2021/11/01 23:54:37;;;;;;;5.93;5.20;;;8.90;93.20;;;;;;5042210;28;20197;-89
2021/11/01 23:57:03;;;;;;;7.00;5.00;;;8.90;93.10;;;;;;5033915;28;20271;-89
2021/11/01 23:59:28;;;;;;;5.87;5.27;;;8.90;93.30;;;;;;5033120;28;20213;-90
